Time;durP1;ratioP1;P1;durP2;ratioP2;P2;SDS_P1;SDS_P2;PMS_P1;PMS_P2;Temp;Humidity;BMP_temperature;BMP_pressure;BME280_temperature;BME280_humidity;BME280_pressure;Samples;Min_cycle;Max_cycle;Signal;HPM_P1;HPM_P2
2020/12/01 00:00:21;;;;;;;1999.90;999.90;;;8.50;99.90;;;;;;5094064;28;20071;-85
2020/12/01 00:02:49;;;;;;;1999.90;999.90;;;8.60;99.90;;;;;;5094888;28;20050;-85
2020/12/01 00:05:18;;;;;;;1999.90;999.90;;;8.50;99.90;;;;;;5094284;28;20135;-85
2020/12/01 00:07:44;;;;;;;1999.90;999.90;;;8.60;99.90;;;;;;5094393;28;20087;-86
2020/12/01 00:10:13;;;;;;;1999.90;999.90;;;8.50;99.90;;;;;;5094683;28;20558;-85
2020/12/01 00:12:40;;;;;;;1999.90;999.90;;;8.50;99.90;;;;;;5094144;28;20109;-85
2020/12/01 00:15:08;;;;;;;1999.90;999.90;;;8.50;99.90;;;;;;5094836;28;20056;-90
2020/12/01 00:17:35;;;;;;;1999.90;999.90;;;8.50;99.90;;;;;;5094855;28;20055;-90
2020/12/01 00:20:05;;;;;;;1999.90;999.90;;;8.40;99.90;;;;;;5094997;28;20143;-90
2020/12/01 00:22:32;;;;;;;1999.90;999.90;;;8.40;99.90;;;;;;5094404;28;20048;-90
2020/12/01 00:25:00;;;;;;;1999.90;999.90;;;8.40;99.90;;;;;;5095391;28;20082;-90
2020/12/01 00:27:27;;;;;;;1999.90;999.90;;;8.30;99.90;;;;;;5095109;28;20048;-90
2020/12/01 00:29:54;;;;;;;1999.90;999.90;;;8.30;99.90;;;;;;5095227;28;20040;-89
2020/12/01 00:32:21;;;;;;;1999.90;999.90;;;8.30;99.90;;;;;;5094880;28;20143;-90
2020/12/01 00:34:48;;;;;;;1999.90;999.90;;;8.20;99.90;;;;;;5094184;28;20071;-90
2020/12/01 00:37:15;;;;;;;1999.90;999.90;;;8.20;99.90;;;;;;5094528;28;20048;-90
2020/12/01 00:39:42;;;;;;;1999.90;999.90;;;8.20;99.90;;;;;;5092957;28;20044;-90
2020/12/01 00:42:10;;;;;;;1999.90;999.90;;;8.20;99.90;;;;;;5094791;28;20150;-89
2020/12/01 00:44:37;;;;;;;1999.90;999.90;;;8.20;99.90;;;;;;5094918;28;20040;-90
2020/12/01 00:47:03;;;;;;;1999.90;999.90;;;8.10;99.90;;;;;;5094932;28;20101;-90
2020/12/01 00:49:31;;;;;;;1999.90;999.90;;;8.10;99.90;;;;;;5094717;28;20047;-90
2020/12/01 00:51:58;;;;;;;1999.90;999.90;;;8.00;99.90;;;;;;5094345;28;20146;-89
2020/12/01 00:54:26;;;;;;;1999.90;999.90;;;8.10;99.90;;;;;;5093966;28;20072;-89
2020/12/01 00:56:56;;;;;;;1999.90;999.90;;;8.10;99.90;;;;;;5094478;28;20467;-89
2020/12/01 00:59:23;;;;;;;1999.90;999.90;;;8.00;99.90;;;;;;5094002;28;20047;-90
2020/12/01 01:01:50;;;;;;;1999.90;999.90;;;8.00;99.90;;;;;;5094651;28;20072;-90
2020/12/01 01:04:17;;;;;;;1999.90;999.90;;;8.00;99.90;;;;;;5094354;28;20048;-90
2020/12/01 01:06:48;;;;;;;1999.90;999.90;;;7.90;99.90;;;;;;5094148;28;20105;-90
2020/12/01 01:09:15;;;;;;;1999.90;999.90;;;7.90;99.90;;;;;;5093834;28;20055;-90
2020/12/01 01:11:43;;;;;;;1999.90;999.90;;;7.90;99.90;;;;;;5093597;28;20123;-89
2020/12/01 01:14:10;;;;;;;1999.90;999.90;;;7.80;99.90;;;;;;5093066;28;20076;-89
2020/12/01 01:16:40;;;;;;;1999.90;999.90;;;7.90;99.90;;;;;;5093896;28;20055;-89
2020/12/01 01:19:08;;;;;;;1999.90;999.90;;;7.80;99.90;;;;;;5093924;28;20089;-90
2020/12/01 01:21:40;;;;;;;1999.90;999.90;;;7.80;99.90;;;;;;5093668;28;20056;-89
2020/12/01 01:24:07;;;;;;;1999.90;999.90;;;7.80;99.90;;;;;;5093327;28;20559;-89
2020/12/01 01:26:34;;;;;;;1999.90;999.90;;;7.80;99.90;;;;;;5095625;28;20043;-90
2020/12/01 01:29:02;;;;;;;1999.90;999.90;;;7.80;99.90;;;;;;5093441;28;20131;-90
2020/12/01 01:31:29;;;;;;;1999.90;999.90;;;7.70;99.90;;;;;;5093395;28;20067;-90
2020/12/01 01:33:57;;;;;;;1999.90;999.90;;;7.70;99.90;;;;;;5086039;28;20060;-90
2020/12/01 01:36:24;;;;;;;1999.90;999.90;;;7.70;99.90;;;;;;5091409;28;20076;-90
2020/12/01 01:38:51;;;;;;;1999.90;999.90;;;7.70;99.90;;;;;;5092248;28;20059;-90
2020/12/01 01:41:18;;;;;;;1999.90;999.90;;;7.70;99.90;;;;;;5089568;28;20143;-89
2020/12/01 01:43:45;;;;;;;1999.90;999.90;;;7.60;99.90;;;;;;5093533;28;20067;-90
2020/12/01 01:46:36;;;;;;;1999.90;999.90;;;7.60;99.90;;;;;;5091904;28;20044;-89
2020/12/01 01:49:07;;;;;;;1999.90;999.90;;;7.60;99.90;;;;;;5092640;28;20121;-90
2020/12/01 01:51:37;;;;;;;1999.90;999.90;;;7.60;99.90;;;;;;5093530;28;20047;-84
2020/12/01 01:54:07;;;;;;;1999.90;999.90;;;7.60;99.90;;;;;;5092711;28;20075;-84
2020/12/01 01:56:39;;;;;;;1999.90;999.90;;;7.60;99.90;;;;;;5088026;28;20140;-85
2020/12/01 01:59:08;;;;;;;1999.90;999.90;;;7.60;99.90;;;;;;5092374;28;20083;-85
2020/12/01 02:01:36;;;;;;;1999.90;999.90;;;7.50;99.90;;;;;;5092142;28;20076;-84
2020/12/01 02:04:05;;;;;;;1999.90;999.90;;;7.50;99.90;;;;;;5092889;28;20048;-85
2020/12/01 02:06:42;;;;;;;1999.90;999.90;;;7.50;99.90;;;;;;5091875;28;20131;-85
2020/12/01 02:09:14;;;;;;;1999.90;999.90;;;7.50;99.90;;;;;;5092181;28;20056;-85
2020/12/01 02:11:43;;;;;;;1999.90;999.90;;;7.40;99.90;;;;;;5091530;28;20054;-84
2020/12/01 02:14:15;;;;;;;1999.90;999.90;;;7.50;99.90;;;;;;5085836;28;20445;-85
2020/12/01 02:16:51;;;;;;;1999.90;999.90;;;7.50;99.90;;;;;;5091148;28;20055;-85
2020/12/01 02:19:23;;;;;;;1999.90;999.90;;;7.40;99.90;;;;;;5084315;28;20127;-84
2020/12/01 02:21:50;;;;;;;1999.90;999.90;;;7.40;99.90;;;;;;5091311;28;20143;-85
2020/12/01 02:24:19;;;;;;;1999.90;999.90;;;7.40;99.90;;;;;;5092216;28;20048;-85
2020/12/01 02:26:49;;;;;;;1999.90;999.90;;;7.40;99.90;;;;;;5091636;28;20048;-85
2020/12/01 02:29:19;;;;;;;1999.90;999.90;;;7.40;99.90;;;;;;5092001;28;20336;-85
2020/12/01 02:31:46;;;;;;;1999.90;999.90;;;7.40;99.90;;;;;;5091593;28;20131;-85
2020/12/01 02:34:16;;;;;;;1999.90;999.90;;;7.40;99.90;;;;;;5091375;28;20044;-85
2020/12/01 02:36:43;;;;;;;1999.90;999.90;;;7.40;99.90;;;;;;5092573;28;20044;-86
2020/12/01 02:39:12;;;;;;;1999.90;999.90;;;7.40;99.90;;;;;;5091344;28;20487;-84
2020/12/01 02:41:39;;;;;;;1999.90;999.90;;;7.40;99.90;;;;;;5092679;28;20048;-85
2020/12/01 02:44:07;;;;;;;1999.90;999.90;;;7.40;99.90;;;;;;5091764;28;20048;-85
2020/12/01 02:46:36;;;;;;;1999.90;999.90;;;7.40;99.90;;;;;;5093477;28;20048;-84
2020/12/01 02:49:05;;;;;;;1999.90;999.90;;;7.40;99.90;;;;;;5096026;28;20063;-85
2020/12/01 02:51:33;;;;;;;1999.90;999.90;;;7.50;99.90;;;;;;5093502;28;20114;-84
2020/12/01 02:54:00;;;;;;;1999.90;999.90;;;7.40;99.90;;;;;;5095943;28;20048;-85
2020/12/01 02:56:27;;;;;;;1999.90;999.90;;;7.40;99.90;;;;;;5089022;28;20550;-85
2020/12/01 02:58:54;;;;;;;1999.90;999.90;;;7.40;99.90;;;;;;5095026;28;20147;-85
2020/12/01 03:01:22;;;;;;;1999.90;999.90;;;7.40;99.90;;;;;;5095678;28;20044;-85
2020/12/01 03:03:49;;;;;;;1999.90;999.90;;;7.40;99.90;;;;;;5086076;28;20055;-85
2020/12/01 03:06:19;;;;;;;1999.90;999.90;;;7.40;99.90;;;;;;5095265;28;20048;-85
2020/12/01 03:08:47;;;;;;;1999.90;999.90;;;7.40;99.90;;;;;;5095020;28;20410;-85
2020/12/01 03:11:15;;;;;;;1999.90;999.90;;;7.40;99.90;;;;;;5095250;28;20075;-85
2020/12/01 03:13:42;;;;;;;1999.90;999.90;;;7.40;99.90;;;;;;5095338;28;20044;-86
2020/12/01 03:16:10;;;;;;;1999.90;999.90;;;7.40;99.90;;;;;;5094779;28;20067;-85
2020/12/01 03:18:40;;;;;;;1999.90;999.90;;;7.40;99.90;;;;;;5095516;28;20131;-84
2020/12/01 03:21:08;;;;;;;1999.90;999.90;;;7.40;99.90;;;;;;5095367;28;20047;-84
2020/12/01 03:23:35;;;;;;;1999.90;999.90;;;7.40;99.90;;;;;;5095224;28;20051;-85
2020/12/01 03:26:02;;;;;;;1999.90;999.90;;;7.40;99.90;;;;;;5095235;28;20444;-84
2020/12/01 03:28:29;;;;;;;1999.90;999.90;;;7.40;99.90;;;;;;5096493;28;20070;-85
2020/12/01 03:30:57;;;;;;;1999.90;999.90;;;7.50;99.90;;;;;;5095097;28;20052;-85
2020/12/01 03:33:24;;;;;;;1999.90;999.90;;;7.50;99.90;;;;;;5094239;28;20050;-84
2020/12/01 03:35:52;;;;;;;1999.90;999.90;;;7.50;99.90;;;;;;5094448;28;20043;-85
2020/12/01 03:38:19;;;;;;;1999.90;999.90;;;7.50;99.90;;;;;;5094641;28;20862;-85
2020/12/01 03:40:46;;;;;;;1999.90;999.90;;;7.50;99.90;;;;;;5094460;28;20378;-85
2020/12/01 03:43:14;;;;;;;1999.90;999.90;;;7.60;99.90;;;;;;5092960;28;20051;-85
2020/12/01 03:45:41;;;;;;;1999.90;999.90;;;7.60;99.90;;;;;;5094645;28;20486;-85
2020/12/01 03:48:08;;;;;;;1999.90;999.90;;;7.60;99.90;;;;;;5094435;28;20044;-84
2020/12/01 03:50:36;;;;;;;1999.90;999.90;;;7.60;99.90;;;;;;5094971;28;20140;-85
2020/12/01 03:53:04;;;;;;;1999.90;999.90;;;7.70;99.90;;;;;;5094171;28;20097;-85
2020/12/01 03:55:32;;;;;;;1999.90;999.90;;;7.70;99.90;;;;;;5094245;28;20048;-85
2020/12/01 03:57:59;;;;;;;1999.90;999.90;;;7.70;99.90;;;;;;5093447;28;20056;-84
2020/12/01 04:00:28;;;;;;;1999.90;999.90;;;7.70;99.90;;;;;;5093484;28;20440;-85
2020/12/01 04:02:58;;;;;;;1999.90;999.90;;;7.80;99.90;;;;;;5094060;28;20490;-85
2020/12/01 04:05:27;;;;;;;1999.90;999.90;;;7.80;99.90;;;;;;5094206;28;20152;-84
2020/12/01 04:07:55;;;;;;;1999.90;999.90;;;7.80;99.90;;;;;;5093814;28;20127;-84
2020/12/01 04:10:25;;;;;;;1999.90;999.90;;;7.80;99.90;;;;;;5094433;28;20150;-84
2020/12/01 04:12:53;;;;;;;1999.90;999.90;;;7.80;99.90;;;;;;5093809;28;20051;-85
2020/12/01 04:15:21;;;;;;;1999.90;999.90;;;7.90;99.90;;;;;;5093698;28;20036;-84
2020/12/01 04:17:48;;;;;;;1999.90;999.90;;;7.90;99.90;;;;;;5093905;28;20052;-85
2020/12/01 04:20:15;;;;;;;1999.90;999.90;;;7.90;99.90;;;;;;5094161;28;20056;-86
2020/12/01 04:22:43;;;;;;;1999.90;999.90;;;7.90;99.90;;;;;;5094500;28;20079;-86
2020/12/01 04:25:11;;;;;;;1999.90;999.90;;;8.00;99.90;;;;;;5094111;28;20127;-86
2020/12/01 04:27:39;;;;;;;1999.90;999.90;;;8.00;99.90;;;;;;5088460;28;20143;-86
2020/12/01 04:30:09;;;;;;;1999.90;999.90;;;8.10;99.90;;;;;;5094158;28;20105;-86
2020/12/01 04:32:36;;;;;;;1999.90;999.90;;;8.10;99.90;;;;;;5094031;28;20074;-85
2020/12/01 04:35:05;;;;;;;1999.90;999.90;;;8.10;99.90;;;;;;5093702;28;20048;-85
2020/12/01 04:37:32;;;;;;;1999.90;999.90;;;8.20;99.90;;;;;;5093858;28;20058;-85
2020/12/01 04:39:59;;;;;;;1999.90;999.90;;;8.20;99.90;;;;;;5094531;28;20052;-85
2020/12/01 04:42:26;;;;;;;1999.90;999.90;;;8.20;99.90;;;;;;5094298;28;20076;-85
2020/12/01 04:45:00;;;;;;;1999.90;999.90;;;8.20;99.90;;;;;;5094128;28;20046;-86
2020/12/01 04:47:34;;;;;;;1999.90;999.90;;;8.30;99.90;;;;;;5094378;28;20157;-85
2020/12/01 04:50:07;;;;;;;1999.90;999.90;;;8.30;99.90;;;;;;5080031;28;20056;-85
2020/12/01 04:53:03;;;;;;;1999.90;999.90;;;8.30;99.90;;;;;;5094078;28;20130;-85
2020/12/01 04:55:54;;;;;;;1999.90;999.90;;;8.30;99.90;;;;;;5088746;28;20134;-85
2020/12/01 04:58:45;;;;;;;1999.90;999.90;;;8.40;99.90;;;;;;5094168;28;20063;-86
2020/12/01 05:01:17;;;;;;;1999.90;999.90;;;8.40;99.90;;;;;;5093345;28;20062;-87
2020/12/01 05:03:57;;;;;;;1999.90;999.90;;;8.30;99.90;;;;;;5094569;28;20080;-89
2020/12/01 05:06:53;;;;;;;1999.90;999.90;;;8.40;99.90;;;;;;5094355;28;20418;-89
2020/12/01 05:09:24;;;;;;;1999.90;999.90;;;8.40;99.90;;;;;;5092309;28;22543;-85
2020/12/01 05:11:55;;;;;;;1999.90;999.90;;;8.40;99.90;;;;;;5093642;28;20135;-85
2020/12/01 05:14:32;;;;;;;1999.90;999.90;;;8.40;99.90;;;;;;5092563;28;20080;-84
2020/12/01 05:17:48;;;;;;;1999.90;999.90;;;8.50;99.90;;;;;;5093587;28;20134;-85
2020/12/01 05:20:15;;;;;;;1999.90;999.90;;;8.50;99.90;;;;;;5093508;27;20107;-85
2020/12/01 05:22:54;;;;;;;1999.90;999.90;;;8.50;99.90;;;;;;5080257;28;20057;-85
2020/12/01 05:25:23;;;;;;;1999.90;999.90;;;8.50;99.90;;;;;;5083972;28;20067;-85
2020/12/01 05:28:03;;;;;;;1999.90;999.90;;;8.50;99.90;;;;;;5086924;28;20056;-84
2020/12/01 05:30:30;;;;;;;1999.90;999.90;;;8.50;99.90;;;;;;5091867;28;20156;-84
2020/12/01 05:33:00;;;;;;;1999.90;999.90;;;8.50;99.90;;;;;;5092671;28;20851;-84
2020/12/01 05:35:30;;;;;;;1999.90;999.90;;;8.50;99.90;;;;;;5093394;28;20039;-89
2020/12/01 05:38:01;;;;;;;1999.90;999.90;;;8.50;99.90;;;;;;5093972;28;20513;-90
2020/12/01 05:40:31;;;;;;;1999.90;999.90;;;8.50;99.90;;;;;;5094250;28;20050;-90
2020/12/01 05:42:58;;;;;;;1999.90;999.90;;;8.50;99.90;;;;;;5086015;28;20055;-90
2020/12/01 05:45:33;;;;;;;1999.90;999.90;;;8.50;99.90;;;;;;5093972;28;20079;-90
2020/12/01 05:48:14;;;;;;;1999.90;999.90;;;8.50;99.90;;;;;;5093175;28;20101;-85
2020/12/01 05:50:53;;;;;;;1999.90;999.90;;;8.50;99.90;;;;;;5093082;28;20128;-85
2020/12/01 05:53:20;;;;;;;1999.90;999.90;;;8.40;99.90;;;;;;5092782;28;20051;-85
2020/12/01 05:56:01;;;;;;;1999.90;999.90;;;8.40;99.90;;;;;;5092793;28;20048;-85
2020/12/01 05:58:38;;;;;;;1999.90;999.90;;;8.40;99.90;;;;;;5092668;28;20504;-85
2020/12/01 06:01:05;;;;;;;1999.90;999.90;;;8.30;99.90;;;;;;5092902;28;20097;-85
2020/12/01 06:03:45;;;;;;;1999.90;999.90;;;8.30;99.90;;;;;;5093008;28;20062;-85
2020/12/01 06:06:14;;;;;;;1999.90;999.90;;;8.30;99.90;;;;;;5092590;28;20079;-85
2020/12/01 06:08:47;;;;;;;1999.90;999.90;;;8.30;99.90;;;;;;5092162;28;20083;-85
2020/12/01 06:11:30;;;;;;;1999.90;999.90;;;8.30;99.90;;;;;;5092129;28;20059;-85
2020/12/01 06:14:00;;;;;;;1999.90;999.90;;;8.30;99.90;;;;;;5091614;28;20121;-85
2020/12/01 06:16:37;;;;;;;1999.90;999.90;;;8.30;99.90;;;;;;5092462;28;20059;-85
2020/12/01 06:19:16;;;;;;;1999.90;999.90;;;8.20;99.90;;;;;;5085270;28;20406;-85
2020/12/01 06:22:36;;;;;;;1999.90;999.90;;;8.20;99.90;;;;;;5089838;28;20086;-85
2020/12/01 06:25:28;;;;;;;1999.90;999.90;;;8.30;99.90;;;;;;5024444;28;20057;-85
2020/12/01 06:28:34;;;;;;;1999.90;999.90;;;8.30;99.90;;;;;;5091434;28;20067;-84
2020/12/01 06:31:11;;;;;;;1999.90;999.90;;;8.20;99.90;;;;;;5029768;28;20132;-84
2020/12/01 06:34:02;;;;;;;1999.90;999.90;;;8.20;99.90;;;;;;5077657;28;20717;-88
2020/12/01 06:36:58;;;;;;;1999.90;999.90;;;8.30;99.90;;;;;;5092153;28;20068;-87
2020/12/01 06:39:41;;;;;;;1999.90;999.90;;;8.30;99.90;;;;;;5088541;28;20068;-89
2020/12/01 06:42:23;;;;;;;1999.90;999.90;;;8.20;99.90;;;;;;5091874;28;20052;-90
2020/12/01 06:44:55;;;;;;;1999.90;999.90;;;8.30;99.90;;;;;;5092309;28;20044;-89
2020/12/01 06:47:29;;;;;;;1999.90;999.90;;;8.30;99.90;;;;;;5092634;28;20082;-89
2020/12/01 06:50:01;;;;;;;1999.90;999.90;;;8.30;99.90;;;;;;5092695;28;20153;-89
2020/12/01 06:52:29;;;;;;;1999.90;999.90;;;8.30;99.90;;;;;;5093028;28;20103;-89
2020/12/01 06:54:58;;;;;;;1999.90;999.90;;;8.20;99.90;;;;;;5093194;28;20307;-89
2020/12/01 06:57:30;;;;;;;1999.90;999.90;;;8.20;99.90;;;;;;5092886;28;20140;-89
2020/12/01 06:59:57;;;;;;;1999.90;999.90;;;8.20;99.90;;;;;;5089250;28;20068;-89
2020/12/01 07:02:28;;;;;;;1999.90;999.90;;;8.30;99.90;;;;;;5087489;28;20080;-89
2020/12/01 07:05:07;;;;;;;1999.90;999.90;;;8.30;99.90;;;;;;5090166;28;20048;-89
2020/12/01 07:07:37;;;;;;;1999.90;999.90;;;8.30;99.90;;;;;;5090589;28;20055;-90
2020/12/01 07:10:23;;;;;;;1999.90;999.90;;;8.30;99.90;;;;;;5090353;28;20055;-89
2020/12/01 07:13:06;;;;;;;1999.90;999.90;;;8.30;99.90;;;;;;5090263;28;20044;-90
2020/12/01 07:15:41;;;;;;;1999.90;999.90;;;8.30;99.90;;;;;;5090517;28;20491;-90
2020/12/01 07:18:17;;;;;;;1999.90;999.90;;;8.20;99.90;;;;;;5090545;28;20044;-89
2020/12/01 07:21:21;;;;;;;1999.90;999.90;;;8.30;99.90;;;;;;5091024;28;20063;-89
2020/12/01 07:23:57;;;;;;;1999.90;999.90;;;8.30;99.90;;;;;;5069640;28;20134;-89
2020/12/01 07:26:35;;;;;;;1999.90;999.90;;;8.30;99.90;;;;;;5090285;28;20155;-89
2020/12/01 07:29:16;;;;;;;1999.90;999.90;;;8.30;99.90;;;;;;5079650;28;20075;-89
2020/12/01 07:31:43;;;;;;;1999.90;999.90;;;8.30;99.90;;;;;;5089484;28;20044;-90
2020/12/01 07:34:25;;;;;;;1999.90;999.90;;;8.30;99.90;;;;;;5093639;28;20075;-89
2020/12/01 07:36:57;;;;;;;1999.90;999.90;;;8.30;99.90;;;;;;5094127;28;20487;-90
2020/12/01 07:39:27;;;;;;;1999.90;999.90;;;8.30;99.90;;;;;;5094587;28;20043;-89
2020/12/01 07:41:57;;;;;;;1999.90;999.90;;;8.30;99.90;;;;;;5080832;28;20048;-88
2020/12/01 07:44:27;;;;;;;1999.90;999.90;;;8.20;99.90;;;;;;5093806;28;20095;-89
2020/12/01 07:47:11;;;;;;;1999.90;999.90;;;8.30;99.90;;;;;;5093684;28;20080;-90
2020/12/01 07:49:38;;;;;;;1999.90;999.90;;;8.30;99.90;;;;;;5090855;28;20062;-89
2020/12/01 07:52:23;;;;;;;1999.90;999.90;;;8.30;99.90;;;;;;5086296;28;20198;-89
2020/12/01 07:54:59;;;;;;;;;;;8.30;99.90;;;;;;5084393;28;20043;-90
2020/12/01 07:57:26;;;;;;;1999.90;999.90;;;8.20;99.90;;;;;;5092565;28;19928;-89
2020/12/01 07:59:54;;;;;;;1999.90;999.90;;;8.30;99.90;;;;;;5083588;28;20051;-89
2020/12/01 08:02:26;;;;;;;1999.90;999.90;;;8.30;99.90;;;;;;5093612;28;20059;-88
2020/12/01 08:05:01;;;;;;;1999.90;999.90;;;8.30;99.90;;;;;;5093438;28;20044;-88
2020/12/01 08:07:28;;;;;;;;;;;8.30;99.90;;;;;;5094093;28;20048;-90
2020/12/01 08:10:04;;;;;;;1999.90;999.90;;;8.30;99.90;;;;;;5086529;28;19920;-91
2020/12/01 08:12:35;;;;;;;1999.90;999.90;;;8.30;99.90;;;;;;5088148;28;20110;-90
2020/12/01 08:15:05;;;;;;;1999.90;999.90;;;8.20;99.90;;;;;;5081037;28;20051;-90
2020/12/01 08:17:35;;;;;;;1999.90;999.90;;;8.30;99.90;;;;;;5093345;28;20040;-90
2020/12/01 08:20:07;;;;;;;1999.90;999.90;;;8.30;99.90;;;;;;5090374;28;20052;-90
2020/12/01 08:22:38;;;;;;;1999.90;999.90;;;8.30;99.90;;;;;;5093243;28;20113;-90
2020/12/01 08:25:13;;;;;;;1999.90;999.90;;;8.30;99.90;;;;;;5090653;28;20398;-88
2020/12/01 08:27:45;;;;;;;1999.90;999.90;;;8.30;99.90;;;;;;5091587;28;20055;-90
2020/12/01 08:30:27;;;;;;;1999.90;999.90;;;8.30;99.90;;;;;;5091833;28;20060;-90
2020/12/01 08:33:03;;;;;;;1999.90;999.90;;;8.30;99.90;;;;;;5093151;28;20048;-90
2020/12/01 08:35:37;;;;;;;1999.90;999.90;;;8.30;99.90;;;;;;5094257;28;20062;-90
2020/12/01 08:38:15;;;;;;;1999.90;999.90;;;8.30;99.90;;;;;;5093574;28;20081;-90
2020/12/01 08:40:49;;;;;;;1999.90;999.90;;;8.30;99.90;;;;;;5093360;28;20566;-90
2020/12/01 08:43:32;;;;;;;1999.90;999.90;;;8.30;99.90;;;;;;5092614;28;20172;-90
2020/12/01 08:46:07;;;;;;;1999.90;999.90;;;8.30;99.90;;;;;;5092443;28;20104;-88
2020/12/01 08:48:42;;;;;;;1999.90;999.90;;;8.30;99.90;;;;;;5092640;28;20047;-90
2020/12/01 08:51:32;;;;;;;1999.90;999.90;;;8.40;99.90;;;;;;5087740;28;20083;-91
2020/12/01 08:54:10;;;;;;;1999.90;999.90;;;8.30;99.90;;;;;;5085591;28;20132;-91
2020/12/01 08:57:00;;;;;;;1999.90;999.90;;;8.30;99.90;;;;;;5093225;28;20059;-91
2020/12/01 08:59:38;;;;;;;1999.90;999.90;;;8.30;99.90;;;;;;5092418;28;20486;-90
2020/12/01 09:02:09;;;;;;;1999.90;999.90;;;8.30;99.90;;;;;;5085821;28;20139;-91
2020/12/01 09:04:37;;;;;;;1999.90;999.90;;;8.30;99.90;;;;;;5086254;28;20120;-91
2020/12/01 09:07:24;;;;;;;1999.90;999.90;;;8.40;99.90;;;;;;5084696;28;20058;-91
2020/12/01 09:10:05;;;;;;;1999.90;999.90;;;8.40;99.90;;;;;;5087508;28;20440;-90
2020/12/01 09:12:36;;;;;;;1999.90;999.90;;;8.40;99.90;;;;;;5092484;28;20136;-90
2020/12/01 09:15:22;;;;;;;1999.90;999.90;;;8.40;99.90;;;;;;5092254;28;20044;-90
2020/12/01 09:18:13;;;;;;;1999.90;999.90;;;8.40;99.90;;;;;;5090091;28;20079;-90
2020/12/01 09:20:58;;;;;;;1999.90;999.90;;;8.50;99.90;;;;;;5090561;28;20056;-91
2020/12/01 09:23:26;;;;;;;;;;;8.50;99.90;;;;;;5091319;28;20116;-90
2020/12/01 09:25:54;;;;;;;1999.90;999.90;;;8.50;99.90;;;;;;5091474;28;19919;-90
2020/12/01 09:28:24;;;;;;;1999.90;999.90;;;8.50;99.90;;;;;;5091733;28;20048;-91
2020/12/01 09:30:51;;;;;;;1999.90;999.90;;;8.50;99.90;;;;;;5091682;28;20050;-90
2020/12/01 09:33:23;;;;;;;1999.90;999.90;;;8.60;99.90;;;;;;5090961;28;20083;-91
2020/12/01 09:35:51;;;;;;;1999.90;999.90;;;8.60;99.90;;;;;;5091301;28;20158;-91
2020/12/01 09:38:18;;;;;;;1999.90;999.90;;;8.60;99.90;;;;;;5091624;28;20115;-91
2020/12/01 09:40:48;;;;;;;1999.90;999.90;;;8.60;99.90;;;;;;5090248;28;20086;-86
2020/12/01 09:43:19;;;;;;;1999.90;999.90;;;8.60;99.90;;;;;;5090317;28;20117;-85
2020/12/01 09:45:56;;;;;;;1999.90;999.90;;;8.50;99.90;;;;;;5083878;28;20048;-84
2020/12/01 09:48:28;;;;;;;1999.90;999.90;;;8.50;99.90;;;;;;5090011;28;20126;-85
2020/12/01 09:50:56;;;;;;;1999.90;999.90;;;8.60;99.90;;;;;;5090206;28;20051;-85
2020/12/01 09:56:17;;;;;;;1999.90;999.90;;;8.50;99.90;;;;;;5075737;28;20123;-85
2020/12/01 10:10:09;;;;;;;1999.90;999.90;;;8.60;99.90;;;;;;5026624;28;20103;-84
2020/12/01 10:12:45;;;;;;;1999.90;999.90;;;8.60;99.90;;;;;;5079866;28;20056;-85
2020/12/01 10:32:14;;;;;;;;;;;8.70;99.90;;;;;;5087674;28;20096;-85
2020/12/01 10:34:49;;;;;;;1999.90;999.90;;;8.60;99.90;;;;;;5089501;28;20387;-85
2020/12/01 10:37:17;;;;;;;1999.90;999.90;;;8.60;99.90;;;;;;5089056;28;20051;-89
2020/12/01 10:39:44;;;;;;;1999.90;999.90;;;8.70;99.90;;;;;;5090077;28;20079;-88
2020/12/01 10:42:13;;;;;;;1999.90;999.90;;;8.70;99.90;;;;;;5089892;28;20425;-88
2020/12/01 10:44:40;;;;;;;1999.90;999.90;;;8.70;99.90;;;;;;5090189;28;20123;-88
2020/12/01 10:47:07;;;;;;;1999.90;999.90;;;8.70;99.90;;;;;;5089375;28;20056;-89
2020/12/01 10:49:34;;;;;;;1999.90;999.90;;;8.70;99.90;;;;;;5088175;28;20052;-88
2020/12/01 10:52:02;;;;;;;1999.90;999.90;;;8.70;99.90;;;;;;5089635;28;20052;-88
2020/12/01 10:54:30;;;;;;;1999.90;999.90;;;8.70;99.90;;;;;;5089626;28;20068;-88
2020/12/01 10:56:58;;;;;;;1999.90;999.90;;;8.70;99.90;;;;;;5089767;28;20494;-87
2020/12/01 10:59:25;;;;;;;1999.90;999.90;;;8.80;99.90;;;;;;5089446;28;20076;-87
2020/12/01 11:01:52;;;;;;;1999.90;999.90;;;8.80;99.90;;;;;;5090068;28;20138;-83
2020/12/01 11:04:21;;;;;;;1999.90;999.90;;;8.80;99.90;;;;;;5086903;28;20109;-83
2020/12/01 11:06:49;;;;;;;1999.90;999.90;;;8.80;99.90;;;;;;5089708;28;20044;-83
2020/12/01 11:09:16;;;;;;;1999.90;999.90;;;8.80;99.90;;;;;;5092452;28;20091;-83
2020/12/01 11:11:44;;;;;;;1999.90;999.90;;;8.90;99.90;;;;;;5092607;28;20059;-83
2020/12/01 11:14:11;;;;;;;1999.90;999.90;;;8.90;99.90;;;;;;5091800;28;20054;-84
2020/12/01 11:16:38;;;;;;;1999.90;999.90;;;8.90;99.90;;;;;;5092101;28;20052;-83
2020/12/01 11:19:05;;;;;;;1999.90;999.90;;;8.90;99.90;;;;;;5092552;28;20121;-84
2020/12/01 11:21:34;;;;;;;1999.90;999.90;;;8.90;99.90;;;;;;5090681;28;20152;-83
2020/12/01 11:24:02;;;;;;;1999.90;999.90;;;8.90;99.90;;;;;;5092773;28;20136;-84
2020/12/01 11:26:29;;;;;;;1999.90;999.90;;;8.90;99.90;;;;;;5081751;28;20419;-83
2020/12/01 11:28:57;;;;;;;1999.90;999.90;;;8.90;99.90;;;;;;5091898;28;20134;-82
2020/12/01 11:31:24;;;;;;;1999.90;999.90;;;8.90;99.90;;;;;;5092220;28;20127;-83
2020/12/01 11:34:00;;;;;;;1999.90;999.90;;;8.90;99.90;;;;;;5092238;28;20047;-83
2020/12/01 11:36:28;;;;;;;1999.90;999.90;;;9.00;99.90;;;;;;5092012;28;20127;-83
2020/12/01 11:38:54;;;;;;;1999.90;999.90;;;9.00;99.90;;;;;;5091907;28;20138;-83
2020/12/01 11:41:22;;;;;;;1999.90;999.90;;;9.00;99.90;;;;;;5091883;28;20097;-83
2020/12/01 11:43:49;;;;;;;1999.90;999.90;;;9.00;99.90;;;;;;5092158;28;20457;-84
2020/12/01 11:46:17;;;;;;;1999.90;999.90;;;9.00;99.90;;;;;;5086837;28;20151;-83
2020/12/01 11:48:44;;;;;;;1999.90;999.90;;;9.00;99.90;;;;;;5091982;28;20399;-84
2020/12/01 11:51:12;;;;;;;1999.90;999.90;;;9.10;99.90;;;;;;5091938;28;20052;-83
2020/12/01 11:53:39;;;;;;;1999.90;999.90;;;9.10;99.90;;;;;;5091879;28;20400;-83
2020/12/01 11:56:07;;;;;;;1999.90;999.90;;;9.00;99.90;;;;;;5091811;28;20382;-83
2020/12/01 11:58:34;;;;;;;1999.90;999.90;;;9.00;99.90;;;;;;5091844;28;20059;-83
2020/12/01 12:01:01;;;;;;;1999.90;999.90;;;9.10;99.90;;;;;;5091671;28;20052;-83
2020/12/01 12:03:29;;;;;;;1999.90;999.90;;;9.10;99.90;;;;;;5091929;28;20081;-84
2020/12/01 12:05:56;;;;;;;1999.90;999.90;;;9.10;99.90;;;;;;5091121;28;20519;-83
2020/12/01 12:08:23;;;;;;;1999.90;999.90;;;9.10;99.90;;;;;;5091663;28;20048;-84
2020/12/01 12:10:50;;;;;;;1999.90;999.90;;;9.00;99.90;;;;;;5091627;28;20048;-83
2020/12/01 12:13:17;;;;;;;1999.90;999.90;;;9.10;99.90;;;;;;5091981;28;20125;-83
2020/12/01 12:15:44;;;;;;;1999.90;999.90;;;9.10;99.90;;;;;;5091254;28;20131;-83
2020/12/01 12:18:11;;;;;;;1999.90;999.90;;;9.10;99.90;;;;;;5085191;28;20148;-83
2020/12/01 12:20:39;;;;;;;1999.90;999.90;;;9.10;99.90;;;;;;5086614;28;20143;-83
2020/12/01 12:23:06;;;;;;;1999.90;999.90;;;9.10;99.90;;;;;;5091362;28;20066;-84
2020/12/01 12:25:33;;;;;;;1999.90;999.90;;;9.10;99.90;;;;;;5091600;28;20131;-87
2020/12/01 12:28:00;;;;;;;1999.90;999.90;;;9.10;99.90;;;;;;5091713;28;20050;-86
2020/12/01 12:30:27;;;;;;;1999.90;999.90;;;9.20;99.90;;;;;;5092084;28;20474;-87
2020/12/01 12:32:54;;;;;;;1999.90;999.90;;;9.20;99.90;;;;;;5091908;28;20050;-88
2020/12/01 12:35:22;;;;;;;1999.90;999.90;;;9.30;99.90;;;;;;5085164;28;20055;-87
2020/12/01 12:37:50;;;;;;;1999.90;999.90;;;9.30;99.90;;;;;;5088522;28;20052;-87
2020/12/01 12:40:18;;;;;;;1999.90;999.90;;;9.30;99.90;;;;;;5091610;28;20048;-87
2020/12/01 12:42:45;;;;;;;1999.90;999.90;;;9.20;99.90;;;;;;5091956;28;20099;-87
2020/12/01 12:45:13;;;;;;;1999.90;999.90;;;9.30;99.90;;;;;;5091492;28;20569;-86
2020/12/01 12:47:40;;;;;;;1999.90;999.90;;;9.30;99.90;;;;;;5091683;28;20054;-87
2020/12/01 12:50:08;;;;;;;1999.90;999.90;;;9.30;99.90;;;;;;5091670;28;20097;-88
2020/12/01 12:52:35;;;;;;;1999.90;999.90;;;9.20;99.90;;;;;;5090161;28;20067;-87
2020/12/01 12:55:04;;;;;;;1999.90;999.90;;;9.30;99.90;;;;;;5091560;28;20044;-87
2020/12/01 12:57:31;;;;;;;1999.90;999.90;;;9.30;99.90;;;;;;5091141;28;20472;-88
2020/12/01 12:59:58;;;;;;;1999.90;999.90;;;9.30;99.90;;;;;;5091186;28;20070;-88
2020/12/01 13:02:25;;;;;;;1999.90;999.90;;;9.30;99.90;;;;;;5091300;28;20086;-87